Time;durP1;ratioP1;P1;durP2;ratioP2;P2;SDS_P1;SDS_P2;PMS_P1;PMS_P2;Temp;Humidity;BMP_temperature;BMP_pressure;BME280_temperature;BME280_humidity;BME280_pressure;Samples;Min_cycle;Max_cycle;Signal;HPM_P1;HPM_P2
2021/03/07 00:01:33;;;;;;;4.97;3.40;;;2.20;99.90;;;;;;5093175;28;20240;-68
2021/03/07 00:03:58;;;;;;;6.23;3.67;;;2.20;99.90;;;;;;5093809;28;20190;-68
2021/03/07 00:06:24;;;;;;;7.37;4.00;;;2.50;99.90;;;;;;5093218;28;20248;-68
2021/03/07 00:08:49;;;;;;;8.37;5.17;;;2.40;99.90;;;;;;5093198;28;20194;-68
2021/03/07 00:11:15;;;;;;;7.13;4.40;;;2.20;99.90;;;;;;5093165;28;20671;-68
2021/03/07 00:13:40;;;;;;;6.83;4.23;;;2.10;99.90;;;;;;5093477;28;20175;-68
2021/03/07 00:16:06;;;;;;;5.53;4.10;;;2.00;99.90;;;;;;5092505;28;20171;-68
2021/03/07 00:18:32;;;;;;;4.50;3.40;;;1.90;99.90;;;;;;5093035;28;20175;-66
2021/03/07 00:20:57;;;;;;;4.37;3.40;;;2.00;99.90;;;;;;5093833;28;20164;-68
2021/03/07 00:23:23;;;;;;;5.80;3.57;;;1.80;99.90;;;;;;5093299;28;20175;-67
2021/03/07 00:25:48;;;;;;;6.03;3.60;;;1.80;99.90;;;;;;5093066;28;20163;-68
2021/03/07 00:28:14;;;;;;;3.73;3.10;;;2.00;99.90;;;;;;5093002;28;20194;-68
2021/03/07 00:30:39;;;;;;;6.33;3.50;;;1.80;99.90;;;;;;5093227;28;20176;-68
2021/03/07 00:33:05;;;;;;;5.90;3.40;;;1.70;99.90;;;;;;5093171;28;20219;-67
2021/03/07 00:35:30;;;;;;;6.90;4.30;;;1.70;99.90;;;;;;5091617;28;20207;-68
2021/03/07 00:37:56;;;;;;;8.23;4.37;;;1.60;99.90;;;;;;5092897;28;20644;-68
2021/03/07 00:40:21;;;;;;;4.77;3.40;;;1.70;99.90;;;;;;5092774;28;20505;-68
2021/03/07 00:42:49;;;;;;;5.50;3.37;;;1.80;99.90;;;;;;5091502;28;20547;-68
2021/03/07 00:45:17;;;;;;;5.60;4.10;;;1.80;99.90;;;;;;5092832;28;20167;-68
2021/03/07 00:47:43;;;;;;;10.25;4.22;;;1.90;99.90;;;;;;5093063;28;20172;-68
2021/03/07 00:50:23;;;;;;;9.00;3.70;;;1.80;99.90;;;;;;5092771;28;20174;-68
2021/03/07 00:52:49;;;;;;;6.53;3.65;;;1.90;99.90;;;;;;5092743;28;20202;-68
2021/03/07 00:55:15;;;;;;;4.17;3.07;;;1.90;99.90;;;;;;5092799;28;20171;-68
2021/03/07 00:57:40;;;;;;;5.43;3.60;;;1.90;99.90;;;;;;5093396;28;20174;-68
2021/03/07 01:00:28;;;;;;;6.30;3.40;;;1.80;99.90;;;;;;5092740;28;20196;-68
2021/03/07 01:02:54;;;;;;;4.63;3.22;;;1.50;99.90;;;;;;5092606;28;20191;-68
2021/03/07 01:05:20;;;;;;;5.05;3.72;;;1.50;99.90;;;;;;5094649;28;20175;-68
2021/03/07 01:07:46;;;;;;;5.40;3.42;;;1.80;99.90;;;;;;5096493;28;20235;-68
2021/03/07 01:10:24;;;;;;;7.27;4.27;;;1.70;99.90;;;;;;5096674;28;20590;-68
2021/03/07 01:12:50;;;;;;;6.53;4.05;;;1.60;99.90;;;;;;5096722;28;20195;-68
2021/03/07 01:15:28;;;;;;;5.85;3.50;;;1.40;99.90;;;;;;5096405;28;20171;-68
2021/03/07 01:17:54;;;;;;;5.22;3.40;;;1.00;99.90;;;;;;5096547;28;20182;-68
2021/03/07 01:20:21;;;;;;;7.35;3.60;;;1.00;99.90;;;;;;5096140;28;20195;-68
2021/03/07 01:22:47;;;;;;;6.15;4.47;;;0.90;99.90;;;;;;5096073;28;20222;-68
2021/03/07 01:25:13;;;;;;;4.07;3.67;;;1.00;99.90;;;;;;5096070;28;20168;-69
2021/03/07 01:27:39;;;;;;;6.68;3.92;;;1.10;99.90;;;;;;5096040;28;20251;-68
2021/03/07 01:30:09;;;;;;;6.43;3.80;;;1.00;99.90;;;;;;5096022;28;20574;-68
2021/03/07 01:32:36;;;;;;;6.50;3.88;;;0.90;99.90;;;;;;5095929;28;20203;-68
2021/03/07 01:35:04;;;;;;;4.40;3.60;;;1.20;99.90;;;;;;5095954;28;20168;-68
2021/03/07 01:37:29;;;;;;;5.45;4.20;;;1.20;99.90;;;;;;5095827;28;20233;-68
2021/03/07 01:39:55;;;;;;;7.63;4.00;;;1.10;99.90;;;;;;5095757;28;20222;-68
2021/03/07 01:42:21;;;;;;;9.40;4.50;;;1.00;99.90;;;;;;5096011;28;20191;-69
2021/03/07 01:44:47;;;;;;;7.80;4.43;;;0.90;99.90;;;;;;5095811;28;20380;-68
2021/03/07 01:47:22;;;;;;;6.22;3.85;;;0.80;99.90;;;;;;5095726;28;20175;-68
2021/03/07 01:49:47;;;;;;;6.97;4.38;;;0.80;99.90;;;;;;5095689;28;20616;-68
2021/03/07 01:52:13;;;;;;;8.23;3.50;;;0.70;99.90;;;;;;5095811;28;20278;-69
2021/03/07 01:54:39;;;;;;;5.70;3.90;;;0.70;99.90;;;;;;5095597;28;20202;-68
2021/03/07 01:57:05;;;;;;;7.40;4.13;;;1.00;99.90;;;;;;5095570;28;20175;-68
2021/03/07 01:59:33;;;;;;;6.45;4.15;;;0.90;99.90;;;;;;5095379;28;20751;-69
2021/03/07 02:01:59;;;;;;;5.45;3.47;;;0.70;99.90;;;;;;5095416;28;20199;-68
2021/03/07 02:04:25;;;;;;;8.20;4.05;;;0.50;99.90;;;;;;5095632;28;20171;-69
2021/03/07 02:06:51;;;;;;;5.13;3.20;;;0.50;99.90;;;;;;5094018;28;20229;-69
2021/03/07 02:09:17;;;;;;;4.00;3.53;;;0.70;99.90;;;;;;5095390;28;20360;-68
2021/03/07 02:11:43;;;;;;;4.57;3.80;;;0.80;99.90;;;;;;5095204;28;20195;-68
2021/03/07 02:14:10;;;;;;;7.93;3.70;;;0.60;99.90;;;;;;5095653;28;20574;-68
2021/03/07 02:16:37;;;;;;;8.18;4.18;;;0.40;99.90;;;;;;5094761;28;20401;-68
2021/03/07 02:19:06;;;;;;;3.85;3.13;;;0.40;99.90;;;;;;5095327;28;20223;-68
2021/03/07 02:21:41;;;;;;;6.68;3.40;;;0.30;99.90;;;;;;5095213;28;20593;-68
2021/03/07 02:24:17;;;;;;;8.32;4.00;;;0.50;99.90;;;;;;5094902;28;20159;-68
2021/03/07 02:26:50;;;;;;;4.78;3.45;;;0.80;99.90;;;;;;5094945;28;20159;-68
2021/03/07 02:29:19;;;;;;;6.00;3.60;;;0.60;99.90;;;;;;5094848;28;20707;-68
2021/03/07 02:32:06;;;;;;;4.30;3.25;;;0.50;99.90;;;;;;5094719;28;20195;-68
2021/03/07 02:34:35;;;;;;;11.05;3.85;;;0.30;99.90;;;;;;5095039;28;20167;-68
2021/03/07 02:37:03;;;;;;;5.45;3.55;;;0.20;99.90;;;;;;5094628;28;20178;-68
2021/03/07 02:39:33;;;;;;;5.00;3.95;;;0.10;99.90;;;;;;5094569;28;20191;-68
2021/03/07 02:42:23;;;;;;;5.90;3.88;;;0.20;99.90;;;;;;5094801;28;20284;-68
2021/03/07 02:45:10;;;;;;;5.22;3.92;;;0.50;99.90;;;;;;5083646;28;20220;-68
2021/03/07 02:47:37;;;;;;;11.25;4.10;;;0.40;99.90;;;;;;5094852;28;20167;-68
2021/03/07 02:50:15;;;;;;;5.05;4.22;;;0.30;99.90;;;;;;5094808;28;20513;-68
2021/03/07 02:52:47;;;;;;;10.27;3.65;;;0.00;99.90;;;;;;5094802;28;20199;-67
2021/03/07 02:55:14;;;;;;;3.63;3.10;;;0.20;99.90;;;;;;5094733;28;20504;-68
2021/03/07 02:57:42;;;;;;;6.32;3.47;;;0.20;99.90;;;;;;5094586;28;20582;-67
2021/03/07 03:00:09;;;;;;;7.82;4.75;;;0.00;99.90;;;;;;5094446;28;20598;-68
2021/03/07 03:02:38;;;;;;;8.65;4.38;;;0.10;99.90;;;;;;5094207;28;20187;-68
2021/03/07 03:05:05;;;;;;;5.57;4.13;;;0.30;99.90;;;;;;5095065;28;20527;-68
2021/03/07 03:07:32;;;;;;;5.85;3.75;;;0.30;99.90;;;;;;5093967;28;20179;-68
2021/03/07 03:09:59;;;;;;;6.97;3.70;;;0.40;99.90;;;;;;5094098;28;20178;-68
2021/03/07 03:12:30;;;;;;;6.20;4.80;;;0.30;99.90;;;;;;5094004;28;20602;-68
2021/03/07 03:14:56;;;;;;;7.05;4.40;;;0.20;99.90;;;;;;5094597;28;20159;-68
2021/03/07 03:17:25;;;;;;;4.72;4.15;;;-0.10;99.90;;;;;;5094191;28;20172;-68
2021/03/07 03:19:52;;;;;;;5.60;4.40;;;0.00;99.90;;;;;;5093916;28;20219;-68
2021/03/07 03:22:20;;;;;;;9.52;3.83;;;0.10;99.90;;;;;;5093783;28;20237;-68
2021/03/07 03:24:48;;;;;;;6.20;3.78;;;0.10;99.90;;;;;;5093831;28;20170;-68
2021/03/07 03:27:14;;;;;;;6.55;3.90;;;-0.10;99.90;;;;;;5093738;28;20160;-68
2021/03/07 03:29:40;;;;;;;9.37;3.93;;;0.00;99.90;;;;;;5093498;28;20624;-68
2021/03/07 03:32:06;;;;;;;5.60;4.25;;;0.10;99.90;;;;;;5093495;28;20410;-68
2021/03/07 03:34:33;;;;;;;7.90;4.60;;;0.30;99.90;;;;;;5093722;28;20179;-68
2021/03/07 03:36:59;;;;;;;5.20;4.15;;;0.20;99.90;;;;;;5093622;28;20517;-68
2021/03/07 03:39:28;;;;;;;7.33;4.33;;;0.10;99.90;;;;;;5092564;28;20198;-68
2021/03/07 03:41:57;;;;;;;5.18;3.90;;;0.10;99.90;;;;;;5093802;28;20191;-68
2021/03/07 03:44:29;;;;;;;6.70;3.80;;;0.10;99.90;;;;;;5093826;28;20194;-68
2021/03/07 03:46:58;;;;;;;6.45;4.57;;;-0.10;99.90;;;;;;5093714;28;20167;-68
2021/03/07 03:49:34;;;;;;;5.93;3.85;;;-0.30;99.90;;;;;;5093542;28;20172;-68
2021/03/07 03:52:03;;;;;;;6.25;4.50;;;-0.10;99.90;;;;;;5093778;28;20194;-68
2021/03/07 03:54:31;;;;;;;7.38;3.85;;;-0.30;99.90;;;;;;5093431;28;20194;-68
2021/03/07 03:56:58;;;;;;;5.95;3.25;;;0.00;99.90;;;;;;5093577;28;20700;-68
2021/03/07 03:59:27;;;;;;;6.50;4.20;;;0.20;99.90;;;;;;5093409;28;20314;-68
2021/03/07 04:01:54;;;;;;;4.95;3.85;;;0.00;99.90;;;;;;5093160;28;20207;-68
2021/03/07 04:04:20;;;;;;;7.15;5.03;;;-0.20;99.90;;;;;;5093421;28;20168;-68
2021/03/07 04:06:47;;;;;;;5.18;4.00;;;-0.40;99.90;;;;;;5093869;28;20175;-68
2021/03/07 04:09:13;;;;;;;4.70;4.20;;;-0.40;99.90;;;;;;5093398;28;20209;-67
2021/03/07 04:11:39;;;;;;;6.90;4.18;;;-0.20;99.90;;;;;;5092989;28;20187;-68
2021/03/07 04:14:06;;;;;;;8.20;4.30;;;-0.10;99.90;;;;;;5093622;28;20171;-67
2021/03/07 04:16:32;;;;;;;7.22;4.32;;;0.00;99.90;;;;;;5093348;28;20174;-67
2021/03/07 04:18:59;;;;;;;7.28;4.40;;;-0.10;99.90;;;;;;5092887;28;20558;-68
2021/03/07 04:21:24;;;;;;;5.40;4.03;;;0.00;99.90;;;;;;5092884;28;20187;-68
2021/03/07 04:23:50;;;;;;;5.27;4.30;;;-0.10;99.90;;;;;;5092902;28;20254;-68
2021/03/07 04:26:16;;;;;;;10.13;4.50;;;-0.10;99.90;;;;;;5092970;28;20554;-68
2021/03/07 04:28:43;;;;;;;4.70;4.03;;;-0.30;99.90;;;;;;5093114;28;20173;-68
2021/03/07 04:31:09;;;;;;;5.45;4.18;;;-0.50;99.90;;;;;;5092732;28;20453;-68
2021/03/07 04:33:35;;;;;;;10.63;4.55;;;-0.50;99.90;;;;;;5093084;28;20177;-67
2021/03/07 04:36:03;;;;;;;7.47;4.15;;;-0.40;99.90;;;;;;5092855;28;20174;-67
2021/03/07 04:38:28;;;;;;;8.10;5.85;;;-0.70;99.90;;;;;;5093113;28;20182;-68
2021/03/07 04:40:54;;;;;;;5.93;4.20;;;-0.50;99.90;;;;;;5095440;28;20277;-67
2021/03/07 04:43:20;;;;;;;7.83;4.97;;;-0.20;99.90;;;;;;5096968;28;20880;-66
2021/03/07 04:45:45;;;;;;;5.72;4.40;;;-0.10;99.90;;;;;;5096984;28;20171;-68
2021/03/07 04:48:11;;;;;;;9.27;5.60;;;-0.10;99.90;;;;;;5097107;28;20166;-68
2021/03/07 04:50:37;;;;;;;5.50;3.90;;;-0.40;99.90;;;;;;5097014;28;20210;-68
2021/03/07 04:53:03;;;;;;;7.10;4.50;;;-0.60;99.90;;;;;;5096780;28;21066;-68
2021/03/07 04:55:28;;;;;;;5.30;4.40;;;-0.40;99.90;;;;;;5096727;28;20171;-66
2021/03/07 04:57:54;;;;;;;6.67;4.27;;;-0.50;99.90;;;;;;5096684;28;20171;-68
2021/03/07 05:00:20;;;;;;;8.47;4.70;;;-0.40;99.90;;;;;;5096721;28;20187;-67
2021/03/07 05:02:45;;;;;;;7.88;4.25;;;-0.30;99.90;;;;;;5096498;28;20187;-68
2021/03/07 05:05:11;;;;;;;10.60;4.50;;;-0.10;99.90;;;;;;5096548;28;20536;-67
2021/03/07 05:07:37;;;;;;;4.93;4.43;;;-0.20;99.90;;;;;;5096359;28;20686;-67
2021/03/07 05:10:05;;;;;;;6.68;3.78;;;-0.30;99.90;;;;;;5096738;28;20601;-68
2021/03/07 05:12:30;;;;;;;10.43;4.20;;;-0.30;99.90;;;;;;5096279;28;20191;-68
2021/03/07 05:14:56;;;;;;;8.73;3.87;;;-0.50;99.90;;;;;;5096313;28;20588;-68
2021/03/07 05:17:24;;;;;;;6.17;4.93;;;-0.80;99.90;;;;;;5096373;28;20172;-68
2021/03/07 05:19:50;;;;;;;5.68;4.18;;;-0.90;99.90;;;;;;5096403;28;20199;-67
2021/03/07 05:22:16;;;;;;;8.00;4.93;;;-0.80;99.90;;;;;;5096378;28;20191;-68
2021/03/07 05:24:42;;;;;;;4.60;4.10;;;-0.70;99.90;;;;;;5096429;28;20189;-67
2021/03/07 05:27:07;;;;;;;5.43;4.43;;;-0.80;99.90;;;;;;5096130;28;20163;-67
2021/03/07 05:29:37;;;;;;;7.43;4.70;;;-0.80;99.90;;;;;;5096118;28;20220;-67
2021/03/07 05:32:06;;;;;;;6.68;5.50;;;-0.80;99.90;;;;;;5096594;28;20203;-68
2021/03/07 05:34:32;;;;;;;6.13;4.25;;;-1.00;99.90;;;;;;5096198;28;20167;-68
2021/03/07 05:36:57;;;;;;;12.93;4.77;;;-1.00;99.90;;;;;;5096591;28;20250;-67
2021/03/07 05:39:25;;;;;;;14.40;4.60;;;-1.00;99.90;;;;;;5094562;28;20198;-67
2021/03/07 05:41:51;;;;;;;6.32;4.57;;;-0.90;99.90;;;;;;5096027;28;20192;-66
2021/03/07 05:44:17;;;;;;;6.90;4.40;;;-1.00;99.90;;;;;;5095801;28;20572;-67
2021/03/07 05:46:43;;;;;;;9.97;4.27;;;-1.10;99.90;;;;;;5096246;28;20167;-67
2021/03/07 05:49:09;;;;;;;5.47;4.97;;;-1.20;99.90;;;;;;5095648;28;20405;-67
2021/03/07 05:51:35;;;;;;;6.80;5.17;;;-1.20;99.90;;;;;;5094355;28;20195;-66
2021/03/07 05:54:01;;;;;;;7.22;5.07;;;-0.80;99.90;;;;;;5095907;28;20376;-67
2021/03/07 05:56:27;;;;;;;7.90;4.60;;;-0.70;99.90;;;;;;5095727;28;20201;-68
2021/03/07 05:58:55;;;;;;;6.80;4.37;;;-0.50;99.90;;;;;;5095394;28;20267;-68
2021/03/07 06:01:21;;;;;;;6.65;5.18;;;-0.50;99.90;;;;;;5095722;28;20395;-68
2021/03/07 06:03:47;;;;;;;12.00;5.28;;;-0.60;99.90;;;;;;5095989;28;20255;-68
2021/03/07 06:06:13;;;;;;;6.53;4.73;;;-0.50;99.90;;;;;;5095357;28;20243;-67
2021/03/07 06:08:39;;;;;;;10.17;4.93;;;-0.60;99.90;;;;;;5095396;28;20470;-68
2021/03/07 06:11:04;;;;;;;8.67;4.90;;;-0.80;99.90;;;;;;5095285;28;20175;-67
2021/03/07 06:13:43;;;;;;;6.10;3.90;;;-0.90;99.90;;;;;;5095638;28;20880;-67
2021/03/07 06:16:10;;;;;;;13.10;5.38;;;-0.70;99.90;;;;;;5095263;28;20163;-68
2021/03/07 06:18:43;;;;;;;5.93;4.10;;;-0.40;99.90;;;;;;5095105;28;20172;-68
2021/03/07 06:21:29;;;;;;;6.07;4.80;;;-0.40;99.90;;;;;;5095061;28;20550;-68
2021/03/07 06:23:56;;;;;;;8.48;5.22;;;-0.30;99.90;;;;;;5095312;28;20639;-68
2021/03/07 06:26:22;;;;;;;6.70;4.20;;;-0.30;99.90;;;;;;5095050;28;20667;-67
2021/03/07 06:29:05;;;;;;;6.00;4.90;;;-0.60;99.90;;;;;;5095067;28;20159;-68
2021/03/07 06:31:31;;;;;;;9.88;4.85;;;-0.50;99.90;;;;;;5095117;28;20503;-68
2021/03/07 06:33:58;;;;;;;5.57;4.40;;;-0.90;99.90;;;;;;5095096;28;20220;-68
2021/03/07 06:36:25;;;;;;;7.10;4.60;;;-0.50;99.90;;;;;;5094830;28;20198;-67
2021/03/07 06:38:54;;;;;;;6.57;4.60;;;-0.40;99.90;;;;;;5094513;28;20174;-68
2021/03/07 06:41:22;;;;;;;6.75;4.55;;;-0.60;99.90;;;;;;5094956;28;20552;-67
2021/03/07 06:43:49;;;;;;;7.55;4.93;;;-0.70;99.90;;;;;;5094686;28;20221;-67
2021/03/07 06:46:36;;;;;;;6.15;4.07;;;-0.60;99.90;;;;;;5094866;28;20167;-67
2021/03/07 06:49:04;;;;;;;7.55;4.60;;;-0.60;99.90;;;;;;5094869;28;20188;-68
2021/03/07 06:51:31;;;;;;;6.78;4.80;;;-0.70;99.90;;;;;;5094498;28;20738;-67
2021/03/07 06:54:11;;;;;;;11.38;5.90;;;-0.80;99.90;;;;;;5094645;28;20179;-67
2021/03/07 06:56:43;;;;;;;8.75;4.80;;;-0.70;99.90;;;;;;5094665;28;20191;-68
2021/03/07 06:59:11;;;;;;;5.72;4.55;;;-0.60;99.90;;;;;;5094200;28;20274;-67
2021/03/07 07:01:45;;;;;;;7.65;5.43;;;-0.60;99.90;;;;;;5094402;28;20316;-68
2021/03/07 07:04:11;;;;;;;7.20;4.93;;;-0.50;99.90;;;;;;5094380;28;20225;-67
2021/03/07 07:06:39;;;;;;;7.72;5.15;;;-0.10;99.90;;;;;;5094204;28;20259;-67
2021/03/07 07:09:09;;;;;;;7.63;5.53;;;0.10;99.90;;;;;;5094427;28;20547;-67
2021/03/07 07:11:46;;;;;;;7.78;6.30;;;0.00;99.90;;;;;;5094299;28;20202;-67
2021/03/07 07:14:28;;;;;;;6.82;5.38;;;-0.10;99.90;;;;;;5094302;28;20509;-67
2021/03/07 07:16:55;;;;;;;7.22;4.90;;;0.30;99.90;;;;;;5094068;28;20159;-68
2021/03/07 07:19:20;;;;;;;7.57;5.10;;;0.40;99.90;;;;;;5094218;28;20199;-68
2021/03/07 07:21:47;;;;;;;5.10;4.57;;;0.40;99.90;;;;;;5093864;28;20209;-67
2021/03/07 07:24:14;;;;;;;9.85;5.68;;;0.30;99.90;;;;;;5094103;28;20510;-68
2021/03/07 07:26:39;;;;;;;7.85;5.13;;;0.50;99.90;;;;;;5093792;28;20202;-68
2021/03/07 07:29:05;;;;;;;8.07;5.40;;;0.30;99.90;;;;;;5093861;28;20183;-68
2021/03/07 07:31:46;;;;;;;8.27;4.77;;;0.50;99.90;;;;;;5093870;28;20199;-66
2021/03/07 07:34:16;;;;;;;9.48;5.15;;;0.80;99.90;;;;;;5093989;28;20238;-68
2021/03/07 07:36:51;;;;;;;8.40;6.20;;;0.80;99.90;;;;;;5094408;28;20617;-68
2021/03/07 07:39:25;;;;;;;8.88;5.60;;;0.80;99.90;;;;;;5093515;28;20274;-67
2021/03/07 07:41:51;;;;;;;7.07;5.70;;;0.90;99.90;;;;;;5093463;28;20183;-67
2021/03/07 07:44:32;;;;;;;6.80;5.60;;;0.90;99.90;;;;;;5093423;28;20174;-68
2021/03/07 07:47:01;;;;;;;7.28;5.35;;;1.00;99.90;;;;;;5093360;28;20144;-67
2021/03/07 07:49:51;;;;;;;8.18;6.10;;;1.10;99.90;;;;;;5093555;28;20207;-68
2021/03/07 07:52:26;;;;;;;8.45;5.60;;;1.20;99.90;;;;;;5093275;28;20191;-68
2021/03/07 07:54:54;;;;;;;9.38;5.32;;;1.20;99.90;;;;;;5093328;28;20171;-68
2021/03/07 07:57:32;;;;;;;8.88;5.30;;;1.30;99.90;;;;;;5093938;28;20313;-68
2021/03/07 08:00:09;;;;;;;12.60;5.22;;;1.40;99.90;;;;;;5092996;28;20210;-67
2021/03/07 08:02:46;;;;;;;7.45;6.28;;;1.40;99.90;;;;;;5092923;28;20191;-68
2021/03/07 08:05:35;;;;;;;6.40;4.78;;;1.50;99.90;;;;;;5093321;28;20245;-68
2021/03/07 08:08:08;;;;;;;10.35;4.88;;;1.90;99.90;;;;;;5080196;28;20199;-68
2021/03/07 08:10:36;;;;;;;11.68;5.22;;;2.00;99.90;;;;;;5093114;28;20183;-68
2021/03/07 08:13:02;;;;;;;8.65;5.53;;;2.50;99.90;;;;;;5092850;28;20202;-68
2021/03/07 08:15:27;;;;;;;5.70;5.20;;;2.40;99.90;;;;;;5092213;28;20168;-67
2021/03/07 08:17:55;;;;;;;7.00;5.13;;;2.40;99.90;;;;;;5093371;28;20537;-68
2021/03/07 08:20:39;;;;;;;10.02;6.30;;;2.20;99.90;;;;;;5093572;28;20249;-68
2021/03/07 08:23:11;;;;;;;9.43;5.13;;;2.40;99.90;;;;;;5092972;28;20697;-68
2021/03/07 08:25:46;;;;;;;7.88;4.68;;;2.60;99.90;;;;;;5093116;28;20242;-68
2021/03/07 08:28:27;;;;;;;7.45;5.25;;;3.00;99.90;;;;;;5093261;28;20191;-69
2021/03/07 08:31:02;;;;;;;7.95;5.22;;;3.20;99.90;;;;;;5093101;28;20228;-68
2021/03/07 08:33:32;;;;;;;8.35;5.28;;;2.90;99.90;;;;;;5093149;28;20198;-68
2021/03/07 08:36:21;;;;;;;6.50;5.32;;;3.10;99.90;;;;;;5092948;28;20646;-69
2021/03/07 08:38:52;;;;;;;8.18;4.43;;;3.40;99.90;;;;;;5093146;28;20246;-69
2021/03/07 08:41:25;;;;;;;9.25;6.10;;;3.70;99.90;;;;;;5093098;28;20532;-68
2021/03/07 08:43:56;;;;;;;8.88;5.72;;;3.90;99.90;;;;;;5093156;28;20198;-68
2021/03/07 08:46:21;;;;;;;6.57;4.88;;;4.00;99.90;;;;;;5093089;28;20171;-68
2021/03/07 08:48:56;;;;;;;7.20;5.37;;;4.10;99.90;;;;;;5092720;28;20524;-69
2021/03/07 08:51:33;;;;;;;6.32;4.25;;;3.90;99.90;;;;;;5092870;28;20179;-68
2021/03/07 08:54:10;;;;;;;9.13;5.32;;;4.20;99.90;;;;;;5093063;28;20585;-69
2021/03/07 08:56:37;;;;;;;7.50;4.75;;;4.40;99.90;;;;;;5092843;28;20247;-68
2021/03/07 08:59:03;;;;;;;8.73;4.72;;;4.70;99.90;;;;;;5092657;28;20675;-68
2021/03/07 09:01:29;;;;;;;7.97;5.22;;;4.90;99.90;;;;;;5092840;28;20237;-68
2021/03/07 09:03:56;;;;;;;11.37;4.10;;;4.40;99.90;;;;;;5092608;28;20167;-69
2021/03/07 09:06:30;;;;;;;8.05;4.95;;;3.90;99.90;;;;;;5093265;28;20171;-68
2021/03/07 09:09:11;;;;;;;12.07;4.43;;;4.60;99.90;;;;;;5092994;28;20194;-69
2021/03/07 09:11:45;;;;;;;6.32;4.10;;;5.10;99.90;;;;;;5092395;28;20191;-68
2021/03/07 09:14:10;;;;;;;8.35;3.95;;;5.10;99.90;;;;;;5092486;28;20182;-68
2021/03/07 09:16:42;;;;;;;4.57;4.03;;;5.30;99.90;;;;;;5092849;28;20216;-68
2021/03/07 09:19:25;;;;;;;10.10;4.68;;;5.50;99.90;;;;;;5092528;28;20187;-69
2021/03/07 09:22:15;;;;;;;7.53;5.45;;;5.10;99.90;;;;;;5092725;28;20192;-68
2021/03/07 09:24:55;;;;;;;7.03;5.15;;;5.70;99.90;;;;;;5093287;28;20183;-69
2021/03/07 09:27:22;;;;;;;6.57;4.53;;;5.50;99.90;;;;;;5095918;28;20167;-69
2021/03/07 09:30:09;;;;;;;9.30;4.65;;;5.70;99.90;;;;;;5096440;28;20225;-68
2021/03/07 09:32:39;;;;;;;7.95;4.85;;;5.70;99.90;;;;;;5095885;28;20187;-69
2021/03/07 09:35:31;;;;;;;8.95;4.53;;;5.80;99.90;;;;;;5095968;28;20171;-69
2021/03/07 09:38:02;;;;;;;9.02;5.63;;;5.80;99.90;;;;;;5096225;28;20156;-68
2021/03/07 09:40:31;;;;;;;11.85;6.78;;;5.50;99.90;;;;;;5096034;28;20195;-69
2021/03/07 09:43:07;;;;;;;9.13;6.50;;;5.40;99.90;;;;;;5095825;28;20191;-69
2021/03/07 09:45:34;;;;;;;8.55;6.10;;;5.60;99.90;;;;;;5096241;28;20217;-69
2021/03/07 09:47:59;;;;;;;8.93;6.70;;;5.40;99.90;;;;;;5096108;28;20528;-68
2021/03/07 09:50:25;;;;;;;10.10;5.97;;;5.60;99.90;;;;;;5095834;28;20225;-69
2021/03/07 09:52:52;;;;;;;13.00;5.70;;;5.70;99.90;;;;;;5095874;28;20199;-69
2021/03/07 09:55:29;;;;;;;7.45;5.80;;;5.60;99.90;;;;;;5095771;28;20384;-69
2021/03/07 09:58:08;;;;;;;9.73;5.05;;;6.40;99.90;;;;;;5095782;28;20246;-69
2021/03/07 10:00:36;;;;;;;8.52;5.85;;;6.10;99.90;;;;;;5095386;28;20192;-68
2021/03/07 10:03:03;;;;;;;8.13;4.90;;;6.30;99.90;;;;;;5096675;28;20253;-69
2021/03/07 10:05:29;;;;;;;7.68;4.70;;;6.70;99.90;;;;;;5095858;28;20687;-68
2021/03/07 10:07:54;;;;;;;7.00;5.07;;;7.10;99.90;;;;;;5095414;28;20262;-68
2021/03/07 10:10:21;;;;;;;6.97;4.97;;;7.80;99.90;;;;;;5095670;28;20466;-69
2021/03/07 10:12:48;;;;;;;7.88;5.00;;;7.40;99.90;;;;;;5095237;28;20239;-68
2021/03/07 10:15:41;;;;;;;7.07;4.95;;;7.90;99.90;;;;;;5095166;28;20180;-68
2021/03/07 10:18:09;;;;;;;11.13;5.18;;;8.50;99.90;;;;;;5095582;28;20635;-69
2021/03/07 10:20:37;;;;;;;11.52;5.28;;;8.40;99.90;;;;;;5095562;28;20589;-69
2021/03/07 10:23:03;;;;;;;5.43;4.88;;;7.30;99.90;;;;;;5095019;28;20183;-68
2021/03/07 10:25:32;;;;;;;8.70;5.53;;;7.50;99.90;;;;;;5095026;28;20163;-69
2021/03/07 10:28:07;;;;;;;7.07;5.22;;;8.20;99.90;;;;;;5095300;28;20413;-68
2021/03/07 10:30:38;;;;;;;12.55;5.28;;;7.90;99.90;;;;;;5095024;28;20248;-69
2021/03/07 10:33:25;;;;;;;7.57;5.78;;;7.90;99.90;;;;;;5095112;28;20218;-69
2021/03/07 10:36:00;;;;;;;10.52;5.15;;;7.70;99.90;;;;;;5094787;28;20187;-69
2021/03/07 10:38:26;;;;;;;10.50;4.90;;;8.30;99.90;;;;;;5094405;28;20227;-69
2021/03/07 10:40:52;;;;;;;6.90;5.50;;;9.10;99.90;;;;;;5094871;28;20192;-68
2021/03/07 10:43:18;;;;;;;12.17;6.57;;;9.10;99.90;;;;;;5094915;28;20175;-69
2021/03/07 10:45:43;;;;;;;11.47;6.23;;;9.50;99.90;;;;;;5094671;28;20480;-69
2021/03/07 10:48:13;;;;;;;6.70;5.00;;;9.70;99.90;;;;;;5094632;28;20155;-69
2021/03/07 10:50:44;;;;;;;8.73;6.17;;;8.80;99.90;;;;;;5094799;28;20533;-69
2021/03/07 10:53:10;;;;;;;6.70;5.50;;;9.30;99.90;;;;;;5094408;28;20796;-69
2021/03/07 10:55:36;;;;;;;10.50;6.73;;;8.90;99.90;;;;;;5094446;28;20377;-69
2021/03/07 10:58:01;;;;;;;6.43;4.97;;;9.00;99.90;;;;;;5094572;28;20776;-67
2021/03/07 11:00:27;;;;;;;9.10;5.13;;;9.80;99.90;;;;;;5094424;28;20260;-69
2021/03/07 11:02:54;;;;;;;7.60;5.70;;;9.80;99.90;;;;;;5094207;28;20221;-69
2021/03/07 11:05:20;;;;;;;9.70;5.70;;;9.60;99.90;;;;;;5094266;28;20183;-69
2021/03/07 11:07:46;;;;;;;8.60;6.00;;;8.90;99.90;;;;;;5094219;28;20478;-68
2021/03/07 11:10:16;;;;;;;9.70;6.27;;;9.00;99.90;;;;;;5094508;28;20169;-69
2021/03/07 11:12:42;;;;;;;11.23;6.50;;;9.40;99.90;;;;;;5094171;28;20896;-69
2021/03/07 11:15:09;;;;;;;9.47;7.17;;;10.40;99.90;;;;;;5094380;28;20398;-69
2021/03/07 11:17:35;;;;;;;11.20;5.93;;;10.80;99.90;;;;;;5094030;28;20648;-68
2021/03/07 11:20:01;;;;;;;7.80;5.80;;;10.90;99.90;;;;;;5094230;28;20448;-69
2021/03/07 11:22:27;;;;;;;10.20;6.13;;;10.90;99.90;;;;;;5094129;28;20679;-69
2021/03/07 11:24:52;;;;;;;9.60;6.73;;;11.10;99.90;;;;;;5093870;28;20816;-69
2021/03/07 11:27:18;;;;;;;10.30;6.30;;;10.10;99.90;;;;;;5093795;28;20440;-69
2021/03/07 11:29:44;;;;;;;8.37;6.43;;;9.80;99.90;;;;;;5093797;28;20179;-69
2021/03/07 11:32:10;;;;;;;7.80;5.83;;;10.70;99.90;;;;;;5093737;28;20425;-69
2021/03/07 11:34:36;;;;;;;8.83;6.33;;;11.10;99.90;;;;;;5094305;28;20167;-69
2021/03/07 11:37:02;;;;;;;6.93;5.33;;;11.70;99.90;;;;;;5093693;28;20229;-68
2021/03/07 11:39:28;;;;;;;9.70;6.13;;;11.10;99.90;;;;;;5093442;28;20441;-68
2021/03/07 11:41:53;;;;;;;8.73;5.37;;;11.20;99.90;;;;;;5093540;28;20915;-69
2021/03/07 11:44:19;;;;;;;9.20;6.03;;;10.40;99.90;;;;;;5093628;28;20214;-69
2021/03/07 11:46:45;;;;;;;8.67;5.60;;;11.00;99.90;;;;;;5093510;28;20174;-69
2021/03/07 11:49:10;;;;;;;11.50;6.90;;;11.20;99.90;;;;;;5092724;28;20664;-69
2021/03/07 11:51:36;;;;;;;10.43;6.03;;;11.30;99.90;;;;;;5093207;28;20280;-68
2021/03/07 11:54:02;;;;;;;6.67;5.97;;;11.30;99.90;;;;;;5093446;28;20167;-69
2021/03/07 11:56:29;;;;;;;8.37;5.67;;;12.10;99.90;;;;;;5093604;28;20164;-68
2021/03/07 11:58:55;;;;;;;8.77;7.00;;;10.60;99.90;;;;;;5093487;28;20399;-68
2021/03/07 12:01:21;;;;;;;13.17;7.57;;;10.60;99.90;;;;;;5093421;28;20428;-69
2021/03/07 12:03:47;;;;;;;7.90;6.30;;;11.80;99.90;;;;;;5093053;28;20277;-67
2021/03/07 12:06:12;;;;;;;8.93;6.40;;;11.50;99.90;;;;;;5093423;28;20445;-69
2021/03/07 12:08:38;;;;;;;9.43;7.93;;;10.90;99.90;;;;;;5093064;28;20213;-69
2021/03/07 12:11:04;;;;;;;10.00;7.70;;;11.40;99.90;;;;;;5093298;28;20175;-69
2021/03/07 12:13:29;;;;;;;11.70;8.77;;;12.00;99.90;;;;;;5093404;28;20163;-68
2021/03/07 12:15:55;;;;;;;11.60;9.17;;;11.30;99.90;;;;;;5093295;28;20406;-69
2021/03/07 12:18:20;;;;;;;18.43;9.87;;;11.90;99.90;;;;;;5092878;28;20513;-69
2021/03/07 12:20:46;;;;;;;11.03;8.37;;;12.90;99.90;;;;;;5093089;28;20191;-69
2021/03/07 12:23:11;;;;;;;11.93;9.17;;;12.60;99.90;;;;;;5092920;28;20605;-69
2021/03/07 12:25:37;;;;;;;15.40;9.17;;;12.60;99.90;;;;;;5093082;28;20649;-68
2021/03/07 12:28:03;;;;;;;10.13;7.90;;;12.20;99.90;;;;;;5092972;28;20217;-69
2021/03/07 12:30:29;;;;;;;11.73;9.20;;;12.10;99.90;;;;;;5093700;28;20259;-69
2021/03/07 12:32:54;;;;;;;13.90;9.13;;;12.70;99.90;;;;;;5092505;28;20863;-68
2021/03/07 12:35:20;;;;;;;12.77;9.10;;;13.10;99.90;;;;;;5092679;28;20175;-69
2021/03/07 12:37:45;;;;;;;10.30;7.87;;;12.80;99.90;;;;;;5092819;28;20255;-68
2021/03/07 12:40:11;;;;;;;11.87;9.00;;;12.30;99.90;;;;;;5092725;28;20564;-69
2021/03/07 12:42:37;;;;;;;11.93;8.67;;;11.70;99.90;;;;;;5092701;28;20603;-67
2021/03/07 12:45:03;;;;;;;11.93;8.80;;;12.60;99.90;;;;;;5092789;28;20420;-69
2021/03/07 12:47:29;;;;;;;10.20;7.53;;;12.00;99.90;;;;;;5092730;28;20521;-69
2021/03/07 12:49:54;;;;;;;9.60;8.60;;;12.30;99.90;;;;;;5092618;28;20458;-67
2021/03/07 12:52:20;;;;;;;9.43;8.27;;;13.60;99.90;;;;;;5092878;28;20278;-67
2021/03/07 12:54:46;;;;;;;11.07;8.40;;;13.50;99.90;;;;;;5092814;28;20175;-68
2021/03/07 12:57:11;;;;;;;9.10;8.20;;;13.50;99.90;;;;;;5092917;28;20248;-68
2021/03/07 12:59:37;;;;;;;9.77;8.57;;;13.90;99.90;;;;;;5092707;28;20187;-68